sensor_id;sensor_type;location;lat;lon;timestamp;P1;durP1;ratioP1;P2;durP2;ratioP2
8050;SDS011;4068;42.158;24.732;2022-12-07T00:00:53;58.07;;;24.67;;
8050;SDS011;4068;42.158;24.732;2022-12-07T00:03:20;54.50;;;23.13;;
8050;SDS011;4068;42.158;24.732;2022-12-07T00:05:45;77.87;;;25.47;;
8050;SDS011;4068;42.158;24.732;2022-12-07T00:08:10;56.57;;;23.67;;
8050;SDS011;4068;42.158;24.732;2022-12-07T00:10:36;52.53;;;24.20;;
8050;SDS011;4068;42.158;24.732;2022-12-07T00:13:01;53.57;;;22.93;;
8050;SDS011;4068;42.158;24.732;2022-12-07T00:15:27;56.63;;;22.73;;
8050;SDS011;4068;42.158;24.732;2022-12-07T00:17:52;56.07;;;22.80;;
8050;SDS011;4068;42.158;24.732;2022-12-07T00:20:18;54.80;;;23.03;;
8050;SDS011;4068;42.158;24.732;2022-12-07T00:22:43;57.03;;;23.97;;
8050;SDS011;4068;42.158;24.732;2022-12-07T00:25:09;72.53;;;23.67;;
8050;SDS011;4068;42.158;24.732;2022-12-07T00:27:34;64.23;;;23.80;;
8050;SDS011;4068;42.158;24.732;2022-12-07T00:30:00;66.03;;;24.50;;
8050;SDS011;4068;42.158;24.732;2022-12-07T00:32:25;55.50;;;22.23;;
8050;SDS011;4068;42.158;24.732;2022-12-07T00:34:51;56.60;;;23.60;;
8050;SDS011;4068;42.158;24.732;2022-12-07T00:37:16;57.73;;;23.90;;
8050;SDS011;4068;42.158;24.732;2022-12-07T00:39:42;58.60;;;22.63;;
8050;SDS011;4068;42.158;24.732;2022-12-07T00:42:07;54.83;;;23.20;;
8050;SDS011;4068;42.158;24.732;2022-12-07T00:44:33;47.90;;;22.27;;
8050;SDS011;4068;42.158;24.732;2022-12-07T00:46:58;57.20;;;24.47;;
8050;SDS011;4068;42.158;24.732;2022-12-07T00:49:23;55.13;;;23.87;;
8050;SDS011;4068;42.158;24.732;2022-12-07T00:51:49;62.57;;;25.17;;
8050;SDS011;4068;42.158;24.732;2022-12-07T00:54:14;48.80;;;22.33;;
8050;SDS011;4068;42.158;24.732;2022-12-07T00:56:40;54.97;;;22.77;;
8050;SDS011;4068;42.158;24.732;2022-12-07T00:59:05;53.83;;;22.80;;
8050;SDS011;4068;42.158;24.732;2022-12-07T01:01:33;46.33;;;21.93;;
8050;SDS011;4068;42.158;24.732;2022-12-07T01:04:00;44.30;;;21.00;;
8050;SDS011;4068;42.158;24.732;2022-12-07T01:06:26;45.20;;;19.83;;
8050;SDS011;4068;42.158;24.732;2022-12-07T01:08:52;43.20;;;20.43;;
8050;SDS011;4068;42.158;24.732;2022-12-07T01:11:19;40.93;;;19.53;;
8050;SDS011;4068;42.158;24.732;2022-12-07T01:13:47;47.83;;;20.43;;
8050;SDS011;4068;42.158;24.732;2022-12-07T01:16:16;44.67;;;20.20;;
8050;SDS011;4068;42.158;24.732;2022-12-07T01:18:42;46.57;;;20.47;;
8050;SDS011;4068;42.158;24.732;2022-12-07T01:21:15;47.70;;;21.53;;
8050;SDS011;4068;42.158;24.732;2022-12-07T01:23:48;44.13;;;19.13;;
8050;SDS011;4068;42.158;24.732;2022-12-07T01:26:16;39.60;;;19.17;;
8050;SDS011;4068;42.158;24.732;2022-12-07T01:28:44;41.47;;;18.60;;
8050;SDS011;4068;42.158;24.732;2022-12-07T01:31:14;43.33;;;19.37;;
8050;SDS011;4068;42.158;24.732;2022-12-07T01:33:45;36.43;;;18.77;;
8050;SDS011;4068;42.158;24.732;2022-12-07T01:36:14;39.03;;;18.57;;
8050;SDS011;4068;42.158;24.732;2022-12-07T01:38:47;41.77;;;18.90;;
8050;SDS011;4068;42.158;24.732;2022-12-07T01:41:14;37.80;;;18.77;;
8050;SDS011;4068;42.158;24.732;2022-12-07T01:46:34;46.27;;;18.40;;
8050;SDS011;4068;42.158;24.732;2022-12-07T01:48:59;40.23;;;18.33;;
8050;SDS011;4068;42.158;24.732;2022-12-07T01:51:26;38.40;;;18.03;;
8050;SDS011;4068;42.158;24.732;2022-12-07T01:53:53;37.87;;;17.87;;
8050;SDS011;4068;42.158;24.732;2022-12-07T01:56:20;41.90;;;18.70;;
8050;SDS011;4068;42.158;24.732;2022-12-07T01:58:49;40.80;;;17.60;;
8050;SDS011;4068;42.158;24.732;2022-12-07T02:01:16;41.43;;;19.00;;
8050;SDS011;4068;42.158;24.732;2022-12-07T02:03:43;36.83;;;17.07;;
8050;SDS011;4068;42.158;24.732;2022-12-07T02:06:10;37.40;;;16.80;;
8050;SDS011;4068;42.158;24.732;2022-12-07T02:08:40;31.43;;;16.70;;
8050;SDS011;4068;42.158;24.732;2022-12-07T02:11:07;31.87;;;16.33;;
8050;SDS011;4068;42.158;24.732;2022-12-07T02:13:34;35.43;;;15.47;;
8050;SDS011;4068;42.158;24.732;2022-12-07T02:16:21;32.20;;;15.80;;
8050;SDS011;4068;42.158;24.732;2022-12-07T02:24:14;36.57;;;15.97;;
8050;SDS011;4068;42.158;24.732;2022-12-07T02:27:07;29.60;;;15.47;;
8050;SDS011;4068;42.158;24.732;2022-12-07T02:32:27;34.30;;;14.73;;
8050;SDS011;4068;42.158;24.732;2022-12-07T02:35:06;29.13;;;14.57;;
8050;SDS011;4068;42.158;24.732;2022-12-07T02:37:48;34.43;;;15.07;;
8050;SDS011;4068;42.158;24.732;2022-12-07T02:40:38;28.63;;;14.13;;
8050;SDS011;4068;42.158;24.732;2022-12-07T02:43:09;29.43;;;13.50;;
8050;SDS011;4068;42.158;24.732;2022-12-07T02:45:43;32.60;;;14.13;;
8050;SDS011;4068;42.158;24.732;2022-12-07T02:48:13;26.87;;;14.37;;
8050;SDS011;4068;42.158;24.732;2022-12-07T02:50:47;28.17;;;14.63;;
8050;SDS011;4068;42.158;24.732;2022-12-07T02:53:33;34.20;;;15.07;;
8050;SDS011;4068;42.158;24.732;2022-12-07T02:58:53;27.47;;;14.70;;
8050;SDS011;4068;42.158;24.732;2022-12-07T03:01:34;33.70;;;14.17;;
8050;SDS011;4068;42.158;24.732;2022-12-07T03:07:18;39.00;;;15.00;;
8050;SDS011;4068;42.158;24.732;2022-12-07T03:10:00;28.63;;;14.83;;
8050;SDS011;4068;42.158;24.732;2022-12-07T03:18:28;37.57;;;14.23;;
8050;SDS011;4068;42.158;24.732;2022-12-07T03:20:57;32.60;;;15.27;;
8050;SDS011;4068;42.158;24.732;2022-12-07T03:23:27;31.20;;;15.17;;
8050;SDS011;4068;42.158;24.732;2022-12-07T03:25:56;26.93;;;15.07;;
8050;SDS011;4068;42.158;24.732;2022-12-07T03:28:26;30.70;;;14.63;;
8050;SDS011;4068;42.158;24.732;2022-12-07T03:30:58;30.87;;;14.63;;
8050;SDS011;4068;42.158;24.732;2022-12-07T03:33:31;32.97;;;14.97;;
8050;SDS011;4068;42.158;24.732;2022-12-07T03:36:08;31.23;;;13.73;;
8050;SDS011;4068;42.158;24.732;2022-12-07T03:41:09;27.37;;;15.13;;
8050;SDS011;4068;42.158;24.732;2022-12-07T03:43:40;36.03;;;14.70;;
8050;SDS011;4068;42.158;24.732;2022-12-07T03:46:11;27.73;;;13.70;;
8050;SDS011;4068;42.158;24.732;2022-12-07T03:49:00;34.53;;;14.07;;
8050;SDS011;4068;42.158;24.732;2022-12-07T03:51:49;32.43;;;14.87;;
8050;SDS011;4068;42.158;24.732;2022-12-07T03:54:27;30.43;;;14.30;;
8050;SDS011;4068;42.158;24.732;2022-12-07T03:57:06;35.80;;;15.57;;
8050;SDS011;4068;42.158;24.732;2022-12-07T03:59:33;31.63;;;14.77;;
8050;SDS011;4068;42.158;24.732;2022-12-07T04:02:03;29.47;;;14.13;;
8050;SDS011;4068;42.158;24.732;2022-12-07T04:04:31;33.10;;;13.77;;
8050;SDS011;4068;42.158;24.732;2022-12-07T04:06:58;29.87;;;15.07;;
8050;SDS011;4068;42.158;24.732;2022-12-07T04:09:23;35.47;;;14.17;;
8050;SDS011;4068;42.158;24.732;2022-12-07T04:11:49;36.87;;;13.93;;
8050;SDS011;4068;42.158;24.732;2022-12-07T04:14:15;34.10;;;14.23;;
8050;SDS011;4068;42.158;24.732;2022-12-07T04:16:47;29.93;;;15.23;;
8050;SDS011;4068;42.158;24.732;2022-12-07T04:19:13;31.90;;;15.27;;
8050;SDS011;4068;42.158;24.732;2022-12-07T04:21:40;35.77;;;15.70;;
8050;SDS011;4068;42.158;24.732;2022-12-07T04:24:05;28.30;;;14.53;;
8050;SDS011;4068;42.158;24.732;2022-12-07T04:26:31;34.50;;;14.33;;
8050;SDS011;4068;42.158;24.732;2022-12-07T04:28:57;35.30;;;14.13;;
8050;SDS011;4068;42.158;24.732;2022-12-07T04:31:22;38.47;;;14.47;;
8050;SDS011;4068;42.158;24.732;2022-12-07T04:33:48;34.80;;;14.40;;
8050;SDS011;4068;42.158;24.732;2022-12-07T04:36:13;31.63;;;14.23;;
8050;SDS011;4068;42.158;24.732;2022-12-07T04:38:40;28.43;;;14.43;;
8050;SDS011;4068;42.158;24.732;2022-12-07T04:41:05;32.57;;;14.60;;
8050;SDS011;4068;42.158;24.732;2022-12-07T04:43:32;35.67;;;14.83;;
8050;SDS011;4068;42.158;24.732;2022-12-07T04:45:58;31.27;;;14.90;;
8050;SDS011;4068;42.158;24.732;2022-12-07T04:48:23;28.73;;;13.90;;
8050;SDS011;4068;42.158;24.732;2022-12-07T04:50:49;29.80;;;13.77;;
8050;SDS011;4068;42.158;24.732;2022-12-07T04:53:17;37.13;;;14.00;;
8050;SDS011;4068;42.158;24.732;2022-12-07T04:55:43;36.13;;;14.50;;
8050;SDS011;4068;42.158;24.732;2022-12-07T04:58:09;32.53;;;15.87;;
8050;SDS011;4068;42.158;24.732;2022-12-07T05:00:35;29.63;;;13.77;;
8050;SDS011;4068;42.158;24.732;2022-12-07T05:03:00;43.13;;;15.57;;
8050;SDS011;4068;42.158;24.732;2022-12-07T05:05:26;36.93;;;15.57;;
8050;SDS011;4068;42.158;24.732;2022-12-07T05:07:51;37.33;;;16.70;;
8050;SDS011;4068;42.158;24.732;2022-12-07T05:10:17;42.80;;;19.37;;
8050;SDS011;4068;42.158;24.732;2022-12-07T05:12:42;45.93;;;18.93;;
8050;SDS011;4068;42.158;24.732;2022-12-07T05:15:08;42.40;;;18.60;;
8050;SDS011;4068;42.158;24.732;2022-12-07T05:17:33;48.93;;;23.03;;
8050;SDS011;4068;42.158;24.732;2022-12-07T05:19:59;59.83;;;27.03;;
8050;SDS011;4068;42.158;24.732;2022-12-07T05:22:24;64.03;;;32.20;;
8050;SDS011;4068;42.158;24.732;2022-12-07T05:24:53;80.93;;;38.70;;
8050;SDS011;4068;42.158;24.732;2022-12-07T05:27:19;58.40;;;27.87;;
8050;SDS011;4068;42.158;24.732;2022-12-07T05:29:45;55.87;;;24.33;;
8050;SDS011;4068;42.158;24.732;2022-12-07T05:32:10;47.07;;;21.07;;
8050;SDS011;4068;42.158;24.732;2022-12-07T05:34:36;77.43;;;30.87;;
8050;SDS011;4068;42.158;24.732;2022-12-07T05:37:01;97.87;;;39.33;;
8050;SDS011;4068;42.158;24.732;2022-12-07T05:39:27;100.33;;;40.17;;
8050;SDS011;4068;42.158;24.732;2022-12-07T05:41:52;59.57;;;27.27;;
8050;SDS011;4068;42.158;24.732;2022-12-07T05:44:36;46.20;;;20.13;;
8050;SDS011;4068;42.158;24.732;2022-12-07T05:47:01;55.83;;;25.23;;
8050;SDS011;4068;42.158;24.732;2022-12-07T05:49:27;49.50;;;25.17;;
8050;SDS011;4068;42.158;24.732;2022-12-07T05:51:52;47.43;;;22.50;;
8050;SDS011;4068;42.158;24.732;2022-12-07T05:54:18;47.77;;;18.10;;
8050;SDS011;4068;42.158;24.732;2022-12-07T05:56:43;40.93;;;18.97;;
8050;SDS011;4068;42.158;24.732;2022-12-07T05:59:09;58.33;;;23.97;;
8050;SDS011;4068;42.158;24.732;2022-12-07T06:01:51;58.83;;;24.53;;
8050;SDS011;4068;42.158;24.732;2022-12-07T06:04:18;38.70;;;18.00;;
8050;SDS011;4068;42.158;24.732;2022-12-07T06:06:44;40.03;;;18.60;;
8050;SDS011;4068;42.158;24.732;2022-12-07T06:09:10;45.13;;;17.90;;
8050;SDS011;4068;42.158;24.732;2022-12-07T06:11:37;40.67;;;18.40;;
8050;SDS011;4068;42.158;24.732;2022-12-07T06:14:21;38.20;;;17.43;;
8050;SDS011;4068;42.158;24.732;2022-12-07T06:16:47;42.87;;;19.90;;
8050;SDS011;4068;42.158;24.732;2022-12-07T06:19:12;60.20;;;18.10;;
8050;SDS011;4068;42.158;24.732;2022-12-07T06:21:38;40.07;;;15.37;;
8050;SDS011;4068;42.158;24.732;2022-12-07T06:24:04;40.70;;;17.10;;
8050;SDS011;4068;42.158;24.732;2022-12-07T06:26:30;35.57;;;17.27;;
8050;SDS011;4068;42.158;24.732;2022-12-07T06:28:55;39.47;;;16.73;;
8050;SDS011;4068;42.158;24.732;2022-12-07T06:31:21;33.70;;;16.30;;
8050;SDS011;4068;42.158;24.732;2022-12-07T06:33:46;36.50;;;15.77;;
8050;SDS011;4068;42.158;24.732;2022-12-07T06:36:12;37.47;;;16.80;;
8050;SDS011;4068;42.158;24.732;2022-12-07T06:38:38;50.27;;;16.33;;
8050;SDS011;4068;42.158;24.732;2022-12-07T06:41:03;30.80;;;14.93;;
8050;SDS011;4068;42.158;24.732;2022-12-07T06:43:29;30.40;;;14.93;;
8050;SDS011;4068;42.158;24.732;2022-12-07T06:45:55;39.33;;;15.57;;
8050;SDS011;4068;42.158;24.732;2022-12-07T06:48:20;32.47;;;14.90;;
8050;SDS011;4068;42.158;24.732;2022-12-07T06:50:46;34.23;;;14.53;;
8050;SDS011;4068;42.158;24.732;2022-12-07T06:53:12;38.63;;;15.30;;
8050;SDS011;4068;42.158;24.732;2022-12-07T06:55:38;39.20;;;17.13;;
8050;SDS011;4068;42.158;24.732;2022-12-07T06:58:04;34.70;;;16.27;;
8050;SDS011;4068;42.158;24.732;2022-12-07T07:00:29;37.60;;;17.23;;
8050;SDS011;4068;42.158;24.732;2022-12-07T07:02:56;33.87;;;16.50;;
8050;SDS011;4068;42.158;24.732;2022-12-07T07:05:21;34.10;;;16.87;;
8050;SDS011;4068;42.158;24.732;2022-12-07T07:07:48;43.50;;;17.57;;
8050;SDS011;4068;42.158;24.732;2022-12-07T07:10:14;38.10;;;18.43;;
8050;SDS011;4068;42.158;24.732;2022-12-07T07:12:39;39.93;;;19.23;;
8050;SDS011;4068;42.158;24.732;2022-12-07T07:15:05;47.33;;;19.73;;
8050;SDS011;4068;42.158;24.732;2022-12-07T07:17:31;40.37;;;19.03;;
8050;SDS011;4068;42.158;24.732;2022-12-07T07:19:56;43.93;;;19.30;;
8050;SDS011;4068;42.158;24.732;2022-12-07T07:22:21;38.37;;;18.77;;
8050;SDS011;4068;42.158;24.732;2022-12-07T07:24:47;36.97;;;18.57;;
8050;SDS011;4068;42.158;24.732;2022-12-07T07:27:12;36.97;;;17.33;;
8050;SDS011;4068;42.158;24.732;2022-12-07T07:29:38;35.87;;;18.27;;
8050;SDS011;4068;42.158;24.732;2022-12-07T07:32:03;38.10;;;18.20;;
8050;SDS011;4068;42.158;24.732;2022-12-07T07:34:29;32.67;;;16.43;;
8050;SDS011;4068;42.158;24.732;2022-12-07T07:36:54;39.73;;;19.17;;
8050;SDS011;4068;42.158;24.732;2022-12-07T07:39:19;41.95;;;19.58;;
8050;SDS011;4068;42.158;24.732;2022-12-07T07:41:45;35.38;;;17.58;;
8050;SDS011;4068;42.158;24.732;2022-12-07T07:44:11;33.20;;;17.38;;
8050;SDS011;4068;42.158;24.732;2022-12-07T07:46:36;32.42;;;17.70;;
8050;SDS011;4068;42.158;24.732;2022-12-07T07:49:02;49.75;;;22.70;;
8050;SDS011;4068;42.158;24.732;2022-12-07T07:51:27;48.10;;;24.13;;
8050;SDS011;4068;42.158;24.732;2022-12-07T07:53:53;48.92;;;23.00;;
8050;SDS011;4068;42.158;24.732;2022-12-07T07:56:19;46.85;;;19.73;;
8050;SDS011;4068;42.158;24.732;2022-12-07T07:58:44;53.53;;;21.98;;
8050;SDS011;4068;42.158;24.732;2022-12-07T08:01:10;36.20;;;19.63;;
8050;SDS011;4068;42.158;24.732;2022-12-07T08:03:35;37.83;;;19.33;;
8050;SDS011;4068;42.158;24.732;2022-12-07T08:06:04;49.03;;;20.98;;
8050;SDS011;4068;42.158;24.732;2022-12-07T08:08:30;38.28;;;19.67;;
8050;SDS011;4068;42.158;24.732;2022-12-07T08:10:55;37.65;;;20.02;;
8050;SDS011;4068;42.158;24.732;2022-12-07T08:13:21;46.93;;;21.13;;
8050;SDS011;4068;42.158;24.732;2022-12-07T08:15:47;42.60;;;20.85;;
8050;SDS011;4068;42.158;24.732;2022-12-07T08:18:13;48.42;;;20.65;;
8050;SDS011;4068;42.158;24.732;2022-12-07T08:20:39;43.92;;;20.70;;
8050;SDS011;4068;42.158;24.732;2022-12-07T08:23:05;44.28;;;19.98;;
8050;SDS011;4068;42.158;24.732;2022-12-07T08:25:32;42.53;;;21.85;;
8050;SDS011;4068;42.158;24.732;2022-12-07T08:27:58;46.92;;;22.60;;
8050;SDS011;4068;42.158;24.732;2022-12-07T08:30:27;54.90;;;26.45;;
8050;SDS011;4068;42.158;24.732;2022-12-07T08:32:53;52.47;;;24.40;;
8050;SDS011;4068;42.158;24.732;2022-12-07T08:35:18;45.85;;;22.50;;
8050;SDS011;4068;42.158;24.732;2022-12-07T08:37:44;52.40;;;25.23;;
8050;SDS011;4068;42.158;24.732;2022-12-07T08:40:10;54.15;;;26.45;;
8050;SDS011;4068;42.158;24.732;2022-12-07T08:42:43;49.42;;;24.25;;
8050;SDS011;4068;42.158;24.732;2022-12-07T08:45:18;41.60;;;22.75;;
8050;SDS011;4068;42.158;24.732;2022-12-07T08:47:46;43.10;;;21.95;;
8050;SDS011;4068;42.158;24.732;2022-12-07T08:50:19;51.55;;;25.02;;
8050;SDS011;4068;42.158;24.732;2022-12-07T08:52:56;55.05;;;25.33;;
8050;SDS011;4068;42.158;24.732;2022-12-07T08:55:23;46.33;;;23.38;;
8050;SDS011;4068;42.158;24.732;2022-12-07T08:57:49;50.90;;;25.75;;
8050;SDS011;4068;42.158;24.732;2022-12-07T09:00:15;58.50;;;23.42;;
8050;SDS011;4068;42.158;24.732;2022-12-07T09:02:44;51.38;;;22.67;;
8050;SDS011;4068;42.158;24.732;2022-12-07T09:05:10;51.90;;;22.58;;
8050;SDS011;4068;42.158;24.732;2022-12-07T09:07:36;47.92;;;22.30;;
8050;SDS011;4068;42.158;24.732;2022-12-07T09:10:03;47.47;;;23.55;;
8050;SDS011;4068;42.158;24.732;2022-12-07T09:12:29;55.35;;;23.98;;
8050;SDS011;4068;42.158;24.732;2022-12-07T09:14:55;47.28;;;22.63;;
8050;SDS011;4068;42.158;24.732;2022-12-07T09:17:21;49.35;;;22.88;;
8050;SDS011;4068;42.158;24.732;2022-12-07T09:19:46;42.95;;;21.33;;
8050;SDS011;4068;42.158;24.732;2022-12-07T09:22:12;52.40;;;21.40;;
8050;SDS011;4068;42.158;24.732;2022-12-07T09:24:37;47.80;;;20.75;;
8050;SDS011;4068;42.158;24.732;2022-12-07T09:27:02;45.08;;;21.52;;
8050;SDS011;4068;42.158;24.732;2022-12-07T09:29:28;44.78;;;21.08;;
8050;SDS011;4068;42.158;24.732;2022-12-07T09:31:53;38.03;;;19.30;;
8050;SDS011;4068;42.158;24.732;2022-12-07T09:34:19;53.28;;;20.17;;
8050;SDS011;4068;42.158;24.732;2022-12-07T09:36:45;39.78;;;19.42;;
8050;SDS011;4068;42.158;24.732;2022-12-07T09:39:10;38.60;;;19.40;;
8050;SDS011;4068;42.158;24.732;2022-12-07T09:41:39;39.50;;;19.85;;
8050;SDS011;4068;42.158;24.732;2022-12-07T09:44:10;35.95;;;19.10;;
8050;SDS011;4068;42.158;24.732;2022-12-07T09:46:38;46.50;;;19.77;;
8050;SDS011;4068;42.158;24.732;2022-12-07T09:49:09;39.85;;;19.73;;
8050;SDS011;4068;42.158;24.732;2022-12-07T09:51:39;44.33;;;21.05;;
8050;SDS011;4068;42.158;24.732;2022-12-07T09:54:05;46.28;;;20.38;;
8050;SDS011;4068;42.158;24.732;2022-12-07T09:56:30;42.70;;;21.15;;
8050;SDS011;4068;42.158;24.732;2022-12-07T09:58:59;38.10;;;19.75;;
8050;SDS011;4068;42.158;24.732;2022-12-07T10:01:30;37.55;;;18.92;;
8050;SDS011;4068;42.158;24.732;2022-12-07T10:04:39;37.97;;;18.83;;
8050;SDS011;4068;42.158;24.732;2022-12-07T10:06:50;33.05;;;18.52;;
8050;SDS011;4068;42.158;24.732;2022-12-07T10:09:17;41.70;;;18.10;;
8050;SDS011;4068;42.158;24.732;2022-12-07T10:11:58;31.30;;;15.50;;
8050;SDS011;4068;42.158;24.732;2022-12-07T10:14:32;29.55;;;14.55;;
8050;SDS011;4068;42.158;24.732;2022-12-07T10:16:59;29.48;;;15.63;;
8050;SDS011;4068;42.158;24.732;2022-12-07T10:19:26;30.30;;;16.00;;
8050;SDS011;4068;42.158;24.732;2022-12-07T10:24:28;34.08;;;16.58;;
8050;SDS011;4068;42.158;24.732;2022-12-07T10:26:53;29.45;;;16.70;;
8050;SDS011;4068;42.158;24.732;2022-12-07T10:29:36;29.95;;;15.80;;
8050;SDS011;4068;42.158;24.732;2022-12-07T10:32:05;32.03;;;16.23;;
8050;SDS011;4068;42.158;24.732;2022-12-07T10:34:51;35.33;;;18.38;;
8050;SDS011;4068;42.158;24.732;2022-12-07T10:37:40;35.92;;;17.02;;
8050;SDS011;4068;42.158;24.732;2022-12-07T10:40:18;36.13;;;17.83;;
8050;SDS011;4068;42.158;24.732;2022-12-07T10:42:53;33.42;;;14.55;;
8050;SDS011;4068;42.158;24.732;2022-12-07T10:45:26;27.70;;;13.98;;
8050;SDS011;4068;42.158;24.732;2022-12-07T10:47:53;27.85;;;14.38;;
8050;SDS011;4068;42.158;24.732;2022-12-07T10:58:35;32.42;;;14.65;;
8050;SDS011;4068;42.158;24.732;2022-12-07T11:12:09;29.63;;;16.15;;
8050;SDS011;4068;42.158;24.732;2022-12-07T11:14:50;35.65;;;17.27;;
8050;SDS011;4068;42.158;24.732;2022-12-07T11:23:18;34.85;;;18.13;;
8050;SDS011;4068;42.158;24.732;2022-12-07T11:31:41;36.15;;;17.02;;
8050;SDS011;4068;42.158;24.732;2022-12-07T11:34:48;26.83;;;15.68;;
8050;SDS011;4068;42.158;24.732;2022-12-07T11:37:30;32.22;;;16.45;;
8050;SDS011;4068;42.158;24.732;2022-12-07T11:40:05;35.30;;;16.98;;
8050;SDS011;4068;42.158;24.732;2022-12-07T11:42:52;33.70;;;17.13;;
8050;SDS011;4068;42.158;24.732;2022-12-07T11:45:31;30.05;;;15.82;;
8050;SDS011;4068;42.158;24.732;2022-12-07T11:50:48;40.25;;;18.02;;
8050;SDS011;4068;42.158;24.732;2022-12-07T11:53:27;44.70;;;17.52;;
8050;SDS011;4068;42.158;24.732;2022-12-07T11:56:03;36.83;;;17.20;;
8050;SDS011;4068;42.158;24.732;2022-12-07T12:06:35;39.05;;;17.48;;
8050;SDS011;4068;42.158;24.732;2022-12-07T12:09:06;33.47;;;16.23;;
8050;SDS011;4068;42.158;24.732;2022-12-07T12:12:02;34.00;;;15.45;;
8050;SDS011;4068;42.158;24.732;2022-12-07T12:20:06;35.47;;;15.55;;
8050;SDS011;4068;42.158;24.732;2022-12-07T12:22:53;32.05;;;15.27;;
8050;SDS011;4068;42.158;24.732;2022-12-07T12:25:26;27.10;;;14.25;;
8050;SDS011;4068;42.158;24.732;2022-12-07T12:27:53;32.92;;;15.35;;
8050;SDS011;4068;42.158;24.732;2022-12-07T12:32:53;37.30;;;15.85;;
8050;SDS011;4068;42.158;24.732;2022-12-07T12:35:29;39.60;;;15.48;;
8050;SDS011;4068;42.158;24.732;2022-12-07T12:40:52;39.40;;;16.23;;
8050;SDS011;4068;42.158;24.732;2022-12-07T12:59:39;32.17;;;15.98;;
8050;SDS011;4068;42.158;24.732;2022-12-07T13:16:35;36.90;;;15.52;;
8050;SDS011;4068;42.158;24.732;2022-12-07T13:18:39;35.05;;;15.73;;
8050;SDS011;4068;42.158;24.732;2022-12-07T13:26:14;41.95;;;17.48;;
8050;SDS011;4068;42.158;24.732;2022-12-07T13:28:44;35.10;;;15.88;;
8050;SDS011;4068;42.158;24.732;2022-12-07T13:33:51;40.45;;;16.92;;
8050;SDS011;4068;42.158;24.732;2022-12-07T13:36:27;32.50;;;15.52;;
8050;SDS011;4068;42.158;24.732;2022-12-07T13:39:01;29.55;;;14.38;;
8050;SDS011;4068;42.158;24.732;2022-12-07T13:41:56;30.42;;;14.50;;
8050;SDS011;4068;42.158;24.732;2022-12-07T13:44:24;33.47;;;15.48;;
8050;SDS011;4068;42.158;24.732;2022-12-07T13:52:08;40.50;;;15.07;;
8050;SDS011;4068;42.158;24.732;2022-12-07T13:54:43;35.05;;;15.27;;
8050;SDS011;4068;42.158;24.732;2022-12-07T13:57:29;29.45;;;15.00;;
8050;SDS011;4068;42.158;24.732;2022-12-07T13:59:56;31.70;;;15.73;;
8050;SDS011;4068;42.158;24.732;2022-12-07T14:02:29;34.90;;;14.93;;
8050;SDS011;4068;42.158;24.732;2022-12-07T14:05:09;29.33;;;15.02;;
8050;SDS011;4068;42.158;24.732;2022-12-07T14:07:54;28.95;;;13.68;;
8050;SDS011;4068;42.158;24.732;2022-12-07T14:10:29;38.80;;;15.85;;
8050;SDS011;4068;42.158;24.732;2022-12-07T14:12:55;40.55;;;16.02;;
8050;SDS011;4068;42.158;24.732;2022-12-07T14:15:22;36.15;;;16.65;;
8050;SDS011;4068;42.158;24.732;2022-12-07T14:18:00;41.17;;;16.67;;
8050;SDS011;4068;42.158;24.732;2022-12-07T14:20:39;40.05;;;17.83;;
8050;SDS011;4068;42.158;24.732;2022-12-07T14:23:20;36.53;;;16.13;;
8050;SDS011;4068;42.158;24.732;2022-12-07T14:25:50;42.28;;;16.65;;
8050;SDS011;4068;42.158;24.732;2022-12-07T14:28:31;35.97;;;15.93;;
8050;SDS011;4068;42.158;24.732;2022-12-07T14:30:58;37.80;;;16.50;;
8050;SDS011;4068;42.158;24.732;2022-12-07T14:33:25;39.40;;;16.85;;
8050;SDS011;4068;42.158;24.732;2022-12-07T14:35:51;35.92;;;16.80;;
8050;SDS011;4068;42.158;24.732;2022-12-07T14:38:21;32.08;;;15.93;;
8050;SDS011;4068;42.158;24.732;2022-12-07T14:40:47;35.13;;;15.75;;
8050;SDS011;4068;42.158;24.732;2022-12-07T14:43:14;44.00;;;16.15;;
8050;SDS011;4068;42.158;24.732;2022-12-07T14:45:41;49.35;;;17.15;;
8050;SDS011;4068;42.158;24.732;2022-12-07T14:48:07;33.28;;;16.48;;
8050;SDS011;4068;42.158;24.732;2022-12-07T14:50:37;42.38;;;16.27;;
8050;SDS011;4068;42.158;24.732;2022-12-07T14:53:26;40.20;;;16.52;;
8050;SDS011;4068;42.158;24.732;2022-12-07T14:55:55;37.65;;;16.60;;
8050;SDS011;4068;42.158;24.732;2022-12-07T14:58:20;46.95;;;17.65;;
8050;SDS011;4068;42.158;24.732;2022-12-07T15:00:46;37.88;;;17.98;;
8050;SDS011;4068;42.158;24.732;2022-12-07T15:03:12;44.35;;;19.10;;
8050;SDS011;4068;42.158;24.732;2022-12-07T15:05:39;40.03;;;19.40;;
8050;SDS011;4068;42.158;24.732;2022-12-07T15:08:05;48.90;;;19.08;;
8050;SDS011;4068;42.158;24.732;2022-12-07T15:10:31;53.53;;;19.05;;
8050;SDS011;4068;42.158;24.732;2022-12-07T15:12:59;42.15;;;19.05;;
8050;SDS011;4068;42.158;24.732;2022-12-07T15:15:44;52.03;;;19.42;;
8050;SDS011;4068;42.158;24.732;2022-12-07T15:18:10;39.00;;;18.55;;
8050;SDS011;4068;42.158;24.732;2022-12-07T15:20:35;55.63;;;24.15;;
8050;SDS011;4068;42.158;24.732;2022-12-07T15:23:01;65.53;;;25.27;;
8050;SDS011;4068;42.158;24.732;2022-12-07T15:25:26;59.00;;;24.27;;
8050;SDS011;4068;42.158;24.732;2022-12-07T15:27:52;60.85;;;25.15;;
8050;SDS011;4068;42.158;24.732;2022-12-07T15:30:17;61.65;;;23.15;;
8050;SDS011;4068;42.158;24.732;2022-12-07T15:32:43;68.82;;;23.17;;
8050;SDS011;4068;42.158;24.732;2022-12-07T15:35:08;62.47;;;22.35;;
8050;SDS011;4068;42.158;24.732;2022-12-07T15:37:33;58.75;;;24.38;;
8050;SDS011;4068;42.158;24.732;2022-12-07T15:39:59;74.57;;;32.50;;
8050;SDS011;4068;42.158;24.732;2022-12-07T15:42:24;102.80;;;35.92;;
8050;SDS011;4068;42.158;24.732;2022-12-07T15:44:50;120.90;;;43.78;;
8050;SDS011;4068;42.158;24.732;2022-12-07T15:47:36;92.88;;;39.75;;
8050;SDS011;4068;42.158;24.732;2022-12-07T15:50:05;86.95;;;35.70;;
8050;SDS011;4068;42.158;24.732;2022-12-07T15:52:32;99.93;;;37.83;;
8050;SDS011;4068;42.158;24.732;2022-12-07T15:54:58;85.22;;;40.38;;
8050;SDS011;4068;42.158;24.732;2022-12-07T15:57:25;86.85;;;39.80;;
8050;SDS011;4068;42.158;24.732;2022-12-07T15:59:51;89.25;;;38.90;;
8050;SDS011;4068;42.158;24.732;2022-12-07T16:02:17;100.82;;;39.92;;
8050;SDS011;4068;42.158;24.732;2022-12-07T16:04:42;97.13;;;35.75;;
8050;SDS011;4068;42.158;24.732;2022-12-07T16:07:08;83.40;;;34.50;;
8050;SDS011;4068;42.158;24.732;2022-12-07T16:09:35;74.07;;;32.85;;
8050;SDS011;4068;42.158;24.732;2022-12-07T16:12:00;86.53;;;33.35;;
8050;SDS011;4068;42.158;24.732;2022-12-07T16:14:26;73.50;;;30.83;;
8050;SDS011;4068;42.158;24.732;2022-12-07T16:16:51;80.43;;;29.92;;
8050;SDS011;4068;42.158;24.732;2022-12-07T16:19:17;69.82;;;27.13;;
8050;SDS011;4068;42.158;24.732;2022-12-07T16:21:42;67.18;;;27.67;;
8050;SDS011;4068;42.158;24.732;2022-12-07T16:24:08;91.10;;;28.08;;
8050;SDS011;4068;42.158;24.732;2022-12-07T16:26:35;75.80;;;26.10;;
8050;SDS011;4068;42.158;24.732;2022-12-07T16:29:01;52.45;;;23.27;;
8050;SDS011;4068;42.158;24.732;2022-12-07T16:31:26;61.30;;;25.33;;
8050;SDS011;4068;42.158;24.732;2022-12-07T16:33:53;50.70;;;22.83;;
8050;SDS011;4068;42.158;24.732;2022-12-07T16:36:20;50.45;;;23.10;;
8050;SDS011;4068;42.158;24.732;2022-12-07T16:38:47;49.40;;;22.58;;
8050;SDS011;4068;42.158;24.732;2022-12-07T16:41:12;53.10;;;20.07;;
8050;SDS011;4068;42.158;24.732;2022-12-07T16:43:38;53.33;;;22.30;;
8050;SDS011;4068;42.158;24.732;2022-12-07T16:46:04;73.13;;;27.43;;
8050;SDS011;4068;42.158;24.732;2022-12-07T16:48:30;58.97;;;25.15;;